ELIMINATOR 2019 - ETAP III

Wydarzenie:
Organizator:
Fundacja Bieg Rzeźnika
Data:
2019-06-08
Miejsce:
Ustroń
Dystans:
1.7 km
Zgłoszonych:
204
Wystartowało:
91
Nie ukończyło:
0
Ukończyło:
91
Na trasie:
0

Klasyfikacja: Wszyscy

Wyniki nieoficjalne !!!
Wyniki uproszczone: PDF | PDF2 | CSV
Klasyfikacje w punktach pomiarowych: 0.9km | Meta
Klasyfikacje wg kategorii: Wszyscy | K Open | M Open | 1KFala | 1MFala | K20 | M20 | K30 | M30 | K40 | M40 | K50 | M50 | K60 | M60

MscZawodnikNumerKlubMiejscowośćKrajKategoriaMkatK/M0.9kmCzas
netto
1.7km
Czas
brutto
1.7km
Różn.Tempo
min/km
Tempo
km/h
       
1LEPIARZ Sylwester 2002LKB RUDNIKWRONÓWM201M 100:07:0000:16:16.8500:16:16.85 9:346.3
2JAŚTAL Piotr 2126LKB RUDNIK/AZS UJK KIELCEDOMASZOWICEM202M 200:07:2300:16:37.8000:16:37.80+00:00:209:466.1
3BIERNAWSKI Piotr 2004ATTIQ TEAM/SALMINGNOWY TARGM401M 300:07:3400:16:51.6500:16:51.65+00:00:349:546.1
4JAWORSKI Zbigniew 2146...KLUSZKOWCEM402M 400:07:5500:17:03.7000:17:03.70+00:00:4610:016
5SKUPIEŃ Tomasz 2003MUAY RUNNING TEAMSKAWINKIM301M 500:07:4100:17:22.7500:17:22.75+00:01:0510:125.9
6BEDNARZ Adam 2016KS ŻEGLINA SIERADZZŁOCZEWM203M 600:07:5800:17:38.2000:17:38.20+00:01:2110:225.8
7MISIAK Bartosz 2147ALPIN SPORT HOKA ONE ONE TEAMCESKY TESINM302M 700:08:0500:17:49.4000:17:49.40+00:01:3210:285.7
8OŚLIZŁO Tomasz 2090HUSARIA RACE TEAMGORZYCEM303M 800:08:3500:17:55.6500:17:55.65+00:01:3810:325.7
9BROJ Marcel 2142BROJ TEAM ŹLINICEŹLINICEM204M 900:08:4000:18:25.3500:18:25.35+00:02:0810:505.5
10DYCZEK Mariusz 2022DYCZUŚ TEAMZDZIESZOWICEM403M 1000:08:1200:18:49.9000:18:49.90+00:02:3311:045.4
11HUZIOR Piotr 2162PTTIQNOWY TARGM404M 1100:08:4400:18:58.3000:18:58.30+00:02:4111:095.4
12URBAŃCZYK Karol 2044GLIWICEM205M 1200:08:5300:19:03.8500:19:03.85+00:02:4711:125.4
13ZAKOWICZ Paweł 2144PIECHOTĄ PO SCHODACH - ŁÓDŹHALINÓWM304M 1300:19:10.8500:19:10.85+00:02:5411:165.3
14BUCZYŃSKI Adam 2024NON STOP TRAILKRAKÓWM405M 1400:09:0100:19:13.0500:19:13.05+00:02:5611:185.3
15TARGOSZ Michał Mateusz 2123FISI COMPRESSPORT NB TEAMKRAKÓWM305M 1500:08:4300:19:21.5500:19:21.55+00:03:0411:225.3
16KAPAON Łazarz 2020CAZZO CLUB RUNNING TEAM/RUNTATA.PLWARSZAWAM206M 1600:08:3900:19:38.8000:19:38.80+00:03:2111:325.2
17JANUSZYK Iwona 1002KS KANDAHAR/ATTIQ TEAMOŚWIĘCIMK201K 100:09:0200:19:45.3500:19:45.35+00:03:2811:375.2
18FABIAN Marcel 2135SOCIOS SILESIAPYSKOWICEM207M 1700:09:1800:19:49.7500:19:49.75+00:03:3211:395.1
19KUBACZKA Grzegorz 2091WWW.AG-ARCHITEKCI.PLSKOCZÓWM306M 1800:09:0700:19:49.9500:19:49.95+00:03:3311:395.1
20SOKOŁOWSKI Marek 2006ALPIN SPORT HOKA ONE ONE TEAMMYSŁOWICE-WESOŁAM501M 1900:09:2200:19:53.1000:19:53.10+00:03:3611:415.1
21MAGIERA Janusz 2005FORMA WODZISŁAW ŚLĄSKIWODZISŁAW ŚLĄSKIM502M 2000:09:2300:19:53.6500:19:53.65+00:03:3611:415.1
22KOZIOŁ Kamil 2136G.O.A.T. TEAM / MŁYN TRAIL MICHAŁOWICEMICHAŁOWICEM208M 2100:09:1700:19:58.1000:19:58.10+00:03:4111:445.1
23JAKIEŁA Michał 2143KRAKÓWM307M 2200:09:1800:20:00.7500:20:00.75+00:03:4311:455.1
24BADURA Adam 2153FORMA WODZISŁAW ŚLĄSKIRYBNIKM406M 2300:09:4200:20:16.2500:20:16.25+00:03:5911:555
25FLISIŃSKI Łukasz 2071SOSNOWIECM308M 2400:09:2400:20:17.5500:20:17.55+00:04:0011:555
26TOKAREWICZ Damian 2041ZEBRYZEBRZYDOWICEM309M 2500:09:1500:20:18.4000:20:18.40+00:04:0111:565
27SZAFRANEK Paweł 2069BIEGIEM PRZEZ CHYBIEUSTROŃM209M 2600:09:4100:20:19.3500:20:19.35+00:04:0211:575
28ZATORSKA Izabela 1007ALPIN SPORT HOKA ONE ONETEAMWROCANKAK501K 200:09:2300:20:27.0000:20:27.00+00:04:1012:015
29SNARSKI Dariusz 2060WATAHA-ŁĄCZY NAS BIEGANIEKATOWICEM407M 2700:09:2900:20:29.7000:20:29.70+00:04:1212:025
30KURYŁO Jakub 2092AUGUSTÓWM2010M 2800:08:5900:20:29.7500:20:29.75+00:04:1212:025
31KORCZ Daniel 2161JAWORZNO RUNNERSJAWORZNOM408M 2900:09:3700:20:31.4500:20:31.45+00:04:1412:045
32GAWLAS Dominik 2007UZDROWISKOWY TEAMCIESZYNM3010M 3000:08:5800:20:31.6500:20:31.65+00:04:1412:045
33WIECZOREK Damian 2131UZDROWISKOKATOWICEM409M 3100:09:3100:20:32.2500:20:32.25+00:04:1512:045
34MALINOWSKI Mateusz 2012MYSŁOWICEM3011M 3200:09:2300:20:32.5000:20:32.50+00:04:1512:045
35KUŚMIERSKI Michał 2038NO I?BIELSKO-BIAŁAM4010M 3300:09:5600:20:33.4000:20:33.40+00:04:1612:055
36SZKODA Dariusz 2164SOCIOS SILESIARUDA ŚLĄSKAM3012M 3400:09:2000:20:34.3000:20:34.30+00:04:1712:055
37BRÓG Wojciech 2009OLKUSZM4011M 3500:09:4000:20:43.0000:20:43.00+00:04:2612:114.9
38GRUND Marek 2011MAFIA TEAM LUBLINIECSTRZEBIŃM3013M 3600:09:1700:20:44.9000:20:44.90+00:04:2812:114.9
39FIJAK Jan 2054SIENNAM4012M 3700:09:3900:20:45.9500:20:45.95+00:04:2912:124.9
40OPOLONY Ireneusz 2165SOCIOS SILESIAŁAŃCEM3014M 3800:09:3000:20:46.6500:20:46.65+00:04:2912:124.9
41URBAN Mirosław 2021ITMBW KRAKÓWKRAKÓWM3015M 3900:10:1200:20:51.7500:20:51.75+00:04:3412:154.9
42CZOK Maria 1004ALPIN SPORT HOKA ONE ONE TEAM/ UBSSTRZELCE OPOLSKIEK301K 300:09:2600:20:55.7000:20:55.70+00:04:3812:184.9
43MARTYNEK Jakub 2102SKI MOSTYMOSTY U JABLUNKOVAM2011M 4000:09:5700:21:08.0000:21:08.00+00:04:5112:254.8
44SKALSKA Anna 1003CARBON OCR RACING TEAM FESTIWAL BIEGOWY KRYNICA ZDRÓJBYTOMK302K 400:09:3600:21:20.4500:21:20.45+00:05:0312:324.8
45GARCORZ Dawid 2014MAFIA TEAM LUBLINIECDZIELNAM2012M 4100:09:4300:21:22.7000:21:22.70+00:05:0512:344.8
46HECZKO Adam 2128UZDROWISKOWY TEAMPOGWIZDÓWM3016M 4200:09:4600:21:27.9000:21:27.90+00:05:1112:374.8
47PILSNIAK Krzysztof 2083LIBERTÓWM4013M 4300:09:4400:21:30.7000:21:30.70+00:05:1312:384.7
48BUKOWSKI Marek 2081BYTOMM4014M 4400:09:5100:21:41.1000:21:41.10+00:05:2412:454.7
49WASZTYL Tomasz 2085BIELSKO - BIAŁAM503M 4500:09:5500:22:11.6000:22:11.60+00:05:5413:024.6
50OSETEK Paweł 2163RADLINIOKI W BIEGUPSZÓWM3017M 4600:10:1100:22:15.0500:22:15.05+00:05:5813:054.6
51SZEWCZYK Damian 2080JEJKOWICEM4015M 4700:10:1600:22:17.9500:22:17.95+00:06:0113:064.6
52OCHMAN Paweł 2111FUTURE PROCESSING RUNNING TEAMGLIWICEM3018M 4800:10:4400:22:21.4500:22:21.45+00:06:0413:084.6
53URBAN Wiktor 2082NIGHT RUNNERS ZABRZE / ZPBZABRZEM3019M 4900:10:0000:22:26.2000:22:26.20+00:06:0913:114.5
54JAKUBCZYK Dariusz 2094CKBABCIE/WOŹNIAKRUNNINGTEAMPIEKOSZÓWM4016M 5000:10:2000:22:35.2000:22:35.20+00:06:1813:174.5
55TOPOROWICZ Agata 1024BIELSKO-BIAŁAK401K 500:10:3200:22:52.5500:22:52.55+00:06:3513:274.5
56KROTLA Piotr 2121TRIATHLON TRAINING CENTERCZĘSTOCHOWAM3020M 5100:10:2500:22:55.4000:22:55.40+00:06:3813:284.5
57MIZERA Krzysztof 2117KRAKÓWM3021M 5200:10:2600:22:58.9500:22:58.95+00:06:4213:304.4
58BOLECHOWSKA Dominika 1039ALPIN SPORT HOKA ONE ONETEAMK402K 600:10:4200:23:08.4000:23:08.40+00:06:5113:364.4
59CUDZIŁO Łukasz 2086X-MAN TEAMKIELCEM3022M 5300:10:2800:23:16.7500:23:16.75+00:06:5913:414.4
60JARCZOK Zdzichu 2019VIKING TRAINING CENTERŁAKAM3023M 5400:10:2400:23:33.5500:23:33.55+00:07:1613:514.3
61DENICKI Przemysław 2113KOLEJ LINOWA CZANTORIAKNURÓWM2013M 5500:10:4000:23:40.0500:23:40.05+00:07:2313:554.3
62KONDRATIUK Ira 1019BIEGAM ŻEBY ŻREĆ WIĘCEJ CIASTKÓWBIELSKO-BIAŁAK202K 700:10:3900:23:44.1500:23:44.15+00:07:2713:574.3
63CHAWONIOK Anna 1035K203K 800:10:4300:23:52.4500:23:52.45+00:07:3514:024.3
64ŁUKOSZ Tomasz 2109XXXUSTROŃM3024M 5600:10:4900:23:55.7000:23:55.70+00:07:3814:044.3
65GRUSZKA Grzegorz 2049ENDURANCE TEAMSIEMIANOWICE ŚLĄSKIEM4017M 5700:10:3800:24:12.0000:24:12.00+00:07:5514:144.2
66LANGE Beata 1005BIŁGORAJ BIEGABIŁGORAJK403K 900:10:5200:24:12.7000:24:12.70+00:07:5514:144.2
67RAKSZAWA Krzysztof 2158RYBNIKM4018M 5800:11:0700:24:21.3000:24:21.30+00:08:0414:194.2
68ZABEL Robert 2148ZABEL.PLPOZNAŃM4019M 5900:11:0100:25:11.4500:25:11.45+00:08:5414:484.1
69WOJNO Arkadiusz 2018DROGA DO ULTRAŁÓDŹM3025M 6000:11:4500:25:16.8500:25:16.85+00:09:0014:514
70MROWIEC Kacper 2098ŻYWIECM2014M 6100:10:4100:26:00.6000:26:00.60+00:09:4315:173.9
71GAMZA Mariusz 2079PĘDZĄCE ŻÓŁWIE IMICZERWIONKA LESZCZYNYM3026M 6200:11:1100:26:00.6500:26:00.65+00:09:4315:173.9
72MARKIEWICZ Karol 2096BIEGAM ŻEBY ŻREĆ WIĘCEJ CIASTKÓWBIELSKO-BIAŁAM3027M 6300:10:5600:26:08.8500:26:08.85+00:09:5215:223.9
73MARTYNEK Vladislav 2101SKI MOSTYMOSTY U JABLUNKOVAM601M 6400:11:5400:26:14.4500:26:14.45+00:09:5715:253.9
74MAZUR Damian 2033SOCIOS SILESIARUDA ŚLĄSKAM3028M 6500:12:1200:26:16.8000:26:16.80+00:09:5915:273.9
75KUKUCZKA Dominik 2035TRAILRUN KUKUCZKAJAWORZYNKAM2015M 6600:10:4200:26:18.4500:26:18.45+00:10:0115:283.9
76STEFAŃCZUK Waldemar 2130UZDROWISKO USTROŃKATOWICEM4020M 6700:11:3000:26:19.3000:26:19.30+00:10:0215:283.9
77SOBOLA Grzegorz 2051RACIBÓRZM2016M 6800:11:3400:26:22.4500:26:22.45+00:10:0515:303.9
78ŁASKI Mateusz 2013LANCKORONAM2017M 6900:12:4600:27:05.7000:27:05.70+00:10:4815:553.8
79CHACHUŁA Ryszard 2030DYCZUŚ TEAMZDZIESZOWICEM4021M 7000:12:0900:27:30.6500:27:30.65+00:11:1316:103.7
80STEFANIAK Justyna 1006KB LUPUS OLEŚNICAOLEŚNICAK404K 1000:12:2800:27:33.7000:27:33.70+00:11:1616:123.7
81WÓJCICKI Kamil 2132RAJSPORT ACTIVE OPOLELISIĘCICEM2018M 7100:12:2100:28:02.7500:28:02.75+00:11:4516:293.6
82DWORNICKI Tomasz 2104RYBNICKA GRUPA BIEGOWA PĘDZIMY RAZEMRYBNIKM4022M 7200:12:4600:29:04.7500:29:04.75+00:12:4717:053.5
83MIKULSKI Michał 2138GREMI BOCHNIABOCHNIAM3029M 7300:12:5300:29:05.1500:29:05.15+00:12:4817:063.5
84CIEŚLAR Kasia 1018USTROŃK303K 1100:13:2200:29:18.6500:29:18.65+00:13:0117:143.5
85LORENS Magdalena 1023G.O.A.T. TEAM MICHAŁOWICEMICHAŁOWICEK204K 1200:12:5500:29:19.0000:29:19.00+00:13:0217:143.5
86SZNAJDER Joanna 1025G.O.A.T. TEAM MICHAŁOWICEMICHAŁOWICEK304K 1300:13:4900:29:20.0000:29:20.00+00:13:0317:153.5
87SOSNOWSKA Izabela 1021CZĘSTOCHOWAK205K 1400:14:1700:29:21.0000:29:21.00+00:13:0417:153.5
88PUCHAJDA Monika 1029OŚWIĘCIMK305K 1500:14:1800:29:22.0000:29:22.00+00:13:0517:163.5
89LITWINOWICZ Karo 1030BEDZINK306K 1600:16:1200:29:23.0000:29:23.00+00:13:0617:173.5
90ZIELIŃSKA Ewelina 1034ZABRZEK206K 1700:16:1200:29:25.0000:29:25.00+00:13:0817:183.5
91DOLNY Tomasz 2154M4023M 7400:14:2900:35:58.4500:35:58.45+00:19:4121:092.8
Znaleziono 91 wynik(ów)